createdAt,value
2019-03-12T00:00:37.425Z,95.10
2019-03-12T00:03:06.374Z,95.40
2019-03-12T00:05:35.613Z,95.40
2019-03-12T00:08:04.554Z,95.50
2019-03-12T00:10:33.510Z,95.60
2019-03-12T00:13:02.454Z,95.90
2019-03-12T00:15:31.515Z,95.90
2019-03-12T00:18:00.630Z,96.20
2019-03-12T00:20:29.805Z,96.40
2019-03-12T00:22:58.766Z,96.60
2019-03-12T00:25:27.739Z,96.60
2019-03-12T00:27:56.653Z,96.60
2019-03-12T00:30:25.752Z,96.80
2019-03-12T00:32:55.902Z,96.90
2019-03-12T00:35:25.554Z,96.90
2019-03-12T00:37:54.501Z,97.20
2019-03-12T00:40:23.428Z,97.20
2019-03-12T00:42:52.363Z,97.10
2019-03-12T00:45:21.248Z,97.10
2019-03-12T00:47:50.133Z,97.20
2019-03-12T00:50:19.082Z,97.10
2019-03-12T00:52:47.989Z,97.20
2019-03-12T00:55:17.025Z,97.30
2019-03-12T00:57:45.980Z,97.40
2019-03-12T01:00:19.221Z,97.30
2019-03-12T01:02:48.216Z,97.40
2019-03-12T01:05:17.247Z,97.40
2019-03-12T01:07:46.142Z,97.30
2019-03-12T01:10:15.899Z,97.30
2019-03-12T01:12:44.847Z,97.30
2019-03-12T01:15:15.282Z,97.20
2019-03-12T01:17:48.389Z,97.20
2019-03-12T01:20:17.381Z,97.20
2019-03-12T01:22:46.373Z,97.30
2019-03-12T01:25:15.946Z,97.30
2019-03-12T01:27:44.831Z,97.00
2019-03-12T01:30:16.722Z,97.10
2019-03-12T01:32:45.650Z,97.20
2019-03-12T01:35:15.252Z,97.10
2019-03-12T01:37:44.176Z,97.10
2019-03-12T01:40:14.469Z,97.20
2019-03-12T01:42:43.401Z,97.10
2019-03-12T01:45:14.425Z,97.00
2019-03-12T01:47:43.324Z,97.00
2019-03-12T01:50:15.928Z,96.80
2019-03-12T01:52:44.897Z,96.80
2019-03-12T01:55:15.554Z,96.90
2019-03-12T01:57:44.520Z,96.90
2019-03-12T02:00:21.062Z,97.00
2019-03-12T02:02:50.027Z,97.00
2019-03-12T02:05:18.901Z,97.20
2019-03-12T02:07:47.933Z,96.90
2019-03-12T02:10:17.014Z,96.80
2019-03-12T02:12:45.902Z,96.90
2019-03-12T02:15:16.242Z,97.00
2019-03-12T02:17:45.130Z,97.00
2019-03-12T02:20:18.132Z,97.20
2019-03-12T02:22:47.036Z,97.20
2019-03-12T02:25:20.439Z,97.20
2019-03-12T02:27:49.365Z,97.30
2019-03-12T02:30:20.395Z,97.40
2019-03-12T02:32:49.402Z,97.40
2019-03-12T02:35:18.555Z,97.40
2019-03-12T02:37:47.458Z,97.60
2019-03-12T02:40:16.969Z,97.70
2019-03-12T02:42:45.927Z,97.60
2019-03-12T02:45:18.279Z,97.70
2019-03-12T02:47:47.223Z,97.80
2019-03-12T02:50:16.417Z,97.70
2019-03-12T02:52:46.318Z,97.80
2019-03-12T02:55:15.558Z,97.90
2019-03-12T02:57:44.509Z,97.90
2019-03-12T03:00:21.379Z,97.90
2019-03-12T03:02:50.440Z,97.90
2019-03-12T03:05:19.521Z,98.10
2019-03-12T03:07:59.051Z,98.10
2019-03-12T03:10:27.975Z,98.20
2019-03-12T03:12:57.014Z,98.60
2019-03-12T03:15:38.873Z,98.20
2019-03-12T03:18:07.751Z,98.40
2019-03-12T03:20:36.658Z,98.40
2019-03-12T03:23:05.638Z,98.60
2019-03-12T03:25:34.594Z,98.60
2019-03-12T03:28:04.018Z,98.80
2019-03-12T03:30:32.886Z,98.80
2019-03-12T03:33:02.269Z,99.00
2019-03-12T03:35:31.342Z,99.00
2019-03-12T03:38:00.339Z,99.00
2019-03-12T03:40:29.273Z,99.00
2019-03-12T03:42:58.242Z,98.90
2019-03-12T03:45:27.212Z,98.90
2019-03-12T03:47:56.198Z,98.90
2019-03-12T03:50:25.314Z,98.80
2019-03-12T03:52:54.286Z,98.90
2019-03-12T03:55:24.149Z,99.00
2019-03-12T03:57:53.214Z,98.90
2019-03-12T04:00:26.277Z,99.00
2019-03-12T04:02:55.181Z,99.00
2019-03-12T04:05:24.131Z,99.00
2019-03-12T04:07:52.994Z,99.00
2019-03-12T04:10:21.940Z,99.00
2019-03-12T04:12:50.890Z,99.00
2019-03-12T04:15:21.137Z,99.00
2019-03-12T04:17:50.045Z,99.00
2019-03-12T04:20:19.594Z,98.70
2019-03-12T04:22:48.467Z,98.70
2019-03-12T04:25:17.391Z,98.70
2019-03-12T04:27:46.409Z,98.70
2019-03-12T04:30:19.198Z,98.40
2019-03-12T04:32:48.145Z,98.00
2019-03-12T04:35:30.646Z,98.00
2019-03-12T04:37:59.591Z,97.30
2019-03-12T04:40:28.473Z,96.20
2019-03-12T04:42:57.361Z,95.50
2019-03-12T04:45:26.361Z,95.30
2019-03-12T04:47:55.260Z,95.70
2019-03-12T04:50:24.194Z,95.90
2019-03-12T04:52:53.190Z,95.90
2019-03-12T04:55:22.116Z,95.90
2019-03-12T04:57:51.077Z,96.20
2019-03-12T05:00:20.698Z,96.30
2019-03-12T05:02:49.637Z,96.20
2019-03-12T05:05:18.524Z,96.20
2019-03-12T05:07:47.507Z,96.50
2019-03-12T05:10:16.950Z,96.40
2019-03-12T05:12:45.853Z,95.30
2019-03-12T05:15:19.139Z,95.20
2019-03-12T05:17:48.109Z,95.40
2019-03-12T05:20:17.691Z,94.90
2019-03-12T05:22:46.595Z,94.70
2019-03-12T05:25:15.942Z,95.00
2019-03-12T05:27:44.819Z,95.00
2019-03-12T05:30:18.154Z,94.90
2019-03-12T05:32:47.092Z,94.10
2019-03-12T05:35:16.069Z,93.00
2019-03-12T05:37:45.082Z,93.40
2019-03-12T05:40:17.555Z,92.90
2019-03-12T05:42:46.423Z,93.00
2019-03-12T05:45:16.451Z,92.70
2019-03-12T05:47:45.340Z,92.90
2019-03-12T05:50:15.563Z,93.20
2019-03-12T05:52:44.457Z,93.00
2019-03-12T05:55:15.317Z,92.90
2019-03-12T05:57:46.965Z,92.70
2019-03-12T06:00:23.700Z,93.20
2019-03-12T06:02:52.604Z,92.90
2019-03-12T06:05:21.531Z,92.60
2019-03-12T06:07:50.479Z,92.40
2019-03-12T06:10:19.420Z,92.70
2019-03-12T06:12:48.345Z,92.10
2019-03-12T06:15:17.839Z,92.20
2019-03-12T06:17:46.798Z,91.60
2019-03-12T06:20:17.000Z,91.20
2019-03-12T06:22:45.887Z,91.80
2019-03-12T06:25:15.354Z,91.50
2019-03-12T06:27:44.405Z,91.50
2019-03-12T06:30:18.961Z,91.50
2019-03-12T06:32:56.539Z,91.90
2019-03-12T06:35:27.385Z,90.90
2019-03-12T06:37:57.988Z,90.80
2019-03-12T06:40:32.168Z,91.30
2019-03-12T06:43:06.665Z,90.60
2019-03-12T06:45:46.385Z,91.20
2019-03-12T06:48:19.683Z,90.50
2019-03-12T06:50:51.002Z,91.00
2019-03-12T06:53:24.451Z,90.70
2019-03-12T06:56:10.503Z,90.60
2019-03-12T06:58:47.019Z,90.60
2019-03-12T07:01:24.584Z,91.10
2019-03-12T07:04:14.029Z,91.30
2019-03-12T07:07:01.306Z,91.40
2019-03-12T07:09:31.817Z,90.90
2019-03-12T07:12:05.138Z,91.10
2019-03-12T07:14:39.276Z,91.30
2019-03-12T07:17:16.325Z,91.40
2019-03-12T07:20:02.122Z,91.40
2019-03-12T07:22:38.444Z,91.60
2019-03-12T07:25:27.381Z,91.20
2019-03-12T07:28:07.066Z,91.60
2019-03-12T07:30:49.549Z,91.50
2019-03-12T07:33:28.860Z,91.20
2019-03-12T07:36:00.284Z,91.20
2019-03-12T07:38:42.644Z,91.00
2019-03-12T07:41:32.370Z,91.40
2019-03-12T07:44:03.346Z,91.00
2019-03-12T07:46:52.032Z,91.20
2019-03-12T07:49:39.208Z,91.20
2019-03-12T07:52:12.433Z,91.00
2019-03-12T07:54:48.691Z,90.40
2019-03-12T07:57:35.535Z,90.30
2019-03-12T08:00:17.209Z,90.00
2019-03-12T08:02:50.834Z,90.30
2019-03-12T08:05:21.340Z,90.00
2019-03-12T08:07:57.989Z,90.30
2019-03-12T08:10:33.650Z,89.90
2019-03-12T08:13:09.116Z,89.40
2019-03-12T08:15:55.869Z,88.60
2019-03-12T08:18:26.392Z,88.60
2019-03-12T08:21:05.748Z,87.50
2019-03-12T08:23:36.335Z,86.90
2019-03-12T08:26:09.820Z,87.00
2019-03-12T08:28:43.143Z,86.80
2019-03-12T08:31:13.647Z,87.70
2019-03-12T08:33:51.177Z,86.80
2019-03-12T08:36:21.826Z,86.40
2019-03-12T08:38:55.021Z,86.40
2019-03-12T08:41:31.474Z,86.30
2019-03-12T08:44:11.296Z,87.70
2019-03-12T08:46:53.391Z,87.90
2019-03-12T08:49:24.123Z,86.60
2019-03-12T08:52:10.590Z,87.80
2019-03-12T08:54:56.438Z,86.50
2019-03-12T08:57:26.898Z,86.40
2019-03-12T09:00:03.368Z,84.60
2019-03-12T09:02:52.171Z,85.50
2019-03-12T09:05:37.913Z,84.10
2019-03-12T09:08:24.672Z,84.30
2019-03-12T09:10:58.234Z,84.50
2019-03-12T09:13:35.286Z,83.70
2019-03-12T09:16:05.831Z,81.50
2019-03-12T09:18:45.267Z,81.10
2019-03-12T09:21:18.756Z,81.30
2019-03-12T09:23:58.211Z,77.80
2019-03-12T09:26:28.729Z,79.70
2019-03-12T09:29:02.293Z,80.40
2019-03-12T09:31:35.631Z,75.40
2019-03-12T09:34:06.103Z,75.40
2019-03-12T09:36:54.812Z,74.70
2019-03-12T09:39:28.001Z,74.00
2019-03-12T09:42:10.595Z,72.90
2019-03-12T09:44:41.070Z,70.50
2019-03-12T09:47:14.063Z,69.80
2019-03-12T09:49:56.363Z,69.30
2019-03-12T09:52:32.859Z,68.00
2019-03-12T09:55:15.628Z,65.20
2019-03-12T09:57:46.131Z,65.80
2019-03-12T10:00:23.690Z,63.90
2019-03-12T10:03:10.415Z,65.20
2019-03-12T10:05:40.887Z,62.60
2019-03-12T10:08:26.447Z,64.40
2019-03-12T10:10:59.711Z,61.50
2019-03-12T10:13:46.204Z,61.40
2019-03-12T10:16:19.222Z,61.40
2019-03-12T10:18:58.984Z,59.70
2019-03-12T10:21:35.604Z,59.30
2019-03-12T10:24:14.967Z,60.50
2019-03-12T10:27:01.969Z,59.30
2019-03-12T10:29:32.439Z,58.00
2019-03-12T10:32:19.147Z,61.30
2019-03-12T10:34:52.595Z,57.30
2019-03-12T10:37:38.103Z,60.60
2019-03-12T10:40:27.911Z,59.80
2019-03-12T10:43:12.099Z,61.60
2019-03-12T10:45:42.604Z,59.90
2019-03-12T10:48:12.645Z,58.70
2019-03-12T10:50:41.708Z,58.60
2019-03-12T10:53:10.679Z,59.30
2019-03-12T10:55:39.719Z,57.00
2019-03-12T10:58:08.570Z,59.60
2019-03-12T11:00:37.894Z,59.50
2019-03-12T11:03:06.780Z,59.30
2019-03-12T11:05:45.391Z,59.40
2019-03-12T11:08:06.975Z,59.20
2019-03-12T11:10:36.416Z,60.60
2019-03-12T11:13:05.616Z,58.30
2019-03-12T11:15:34.824Z,57.50
2019-03-12T11:18:03.939Z,55.30
2019-03-12T11:20:33.089Z,58.60
2019-03-12T11:23:01.986Z,55.30
2019-03-12T11:25:31.088Z,55.90
2019-03-12T11:27:59.976Z,56.10
2019-03-12T11:30:28.876Z,55.70
2019-03-12T11:32:57.923Z,54.30
2019-03-12T11:35:26.990Z,54.10
2019-03-12T11:37:55.955Z,53.80
2019-03-12T11:40:31.803Z,53.80
2019-03-12T11:42:57.945Z,54.30
2019-03-12T11:45:36.129Z,54.20
2019-03-12T11:47:57.534Z,54.00
2019-03-12T11:50:27.153Z,51.60
2019-03-12T11:52:58.919Z,50.00
2019-03-12T11:55:27.143Z,51.00
2019-03-12T11:57:56.093Z,50.70
2019-03-12T12:00:27.611Z,49.90
2019-03-12T12:03:00.313Z,48.80
2019-03-12T12:05:27.931Z,49.90
2019-03-12T12:07:56.950Z,50.70
2019-03-12T12:10:26.027Z,49.00
2019-03-12T12:12:55.107Z,49.60
2019-03-12T12:15:24.125Z,47.90
2019-03-12T12:17:53.033Z,49.10
2019-03-12T12:20:29.762Z,50.90
2019-03-12T12:22:52.856Z,50.70
2019-03-12T12:25:21.867Z,49.00
2019-03-12T12:27:50.747Z,48.40
2019-03-12T12:30:20.887Z,49.80
2019-03-12T12:32:49.922Z,48.80
2019-03-12T12:35:19.043Z,47.60
2019-03-12T12:37:48.076Z,47.70
2019-03-12T12:40:23.362Z,49.60
2019-03-12T12:42:53.842Z,47.90
2019-03-12T12:45:30.284Z,46.50
2019-03-12T12:47:59.719Z,45.40
2019-03-12T12:50:29.397Z,45.70
2019-03-12T12:52:59.477Z,45.60
2019-03-12T12:55:29.565Z,46.50
2019-03-12T12:58:02.400Z,44.90
2019-03-12T13:00:31.316Z,46.50
2019-03-12T13:03:00.254Z,47.40
2019-03-12T13:05:29.181Z,46.30
2019-03-12T13:07:58.094Z,45.50
2019-03-12T13:10:28.553Z,47.00
2019-03-12T13:12:57.608Z,46.70
2019-03-12T13:15:26.744Z,47.10
2019-03-12T13:17:55.724Z,45.20
2019-03-12T13:20:24.910Z,46.70
2019-03-12T13:22:53.888Z,47.80
2019-03-12T13:25:22.934Z,47.20
2019-03-12T13:27:51.821Z,48.10
2019-03-12T13:30:21.766Z,48.10
2019-03-12T13:32:50.673Z,47.20
2019-03-12T13:35:19.985Z,47.50
2019-03-12T13:37:49.514Z,47.50
2019-03-12T13:40:26.227Z,47.80
2019-03-12T13:42:55.551Z,47.50
2019-03-12T13:45:29.676Z,50.30
2019-03-12T13:47:58.879Z,55.40
2019-03-12T13:50:27.993Z,59.50
2019-03-12T13:52:56.889Z,60.80
2019-03-12T13:55:25.971Z,61.20
2019-03-12T13:57:55.074Z,61.20
2019-03-12T14:00:25.427Z,59.50
2019-03-12T14:02:54.720Z,57.10
2019-03-12T14:05:23.895Z,54.30
2019-03-12T14:07:52.799Z,54.50
2019-03-12T14:10:23.527Z,54.00
2019-03-12T14:12:54.352Z,55.40
2019-03-12T14:15:35.103Z,55.40
2019-03-12T14:18:04.239Z,55.90
2019-03-12T14:20:51.254Z,55.20
2019-03-12T14:23:26.562Z,55.30
2019-03-12T14:25:55.643Z,54.70
2019-03-12T14:28:24.787Z,53.70
2019-03-12T14:30:55.170Z,54.10
2019-03-12T14:33:24.151Z,53.20
2019-03-12T14:35:53.093Z,54.30
2019-03-12T14:38:22.945Z,52.40
2019-03-12T14:40:52.114Z,53.20
2019-03-12T14:43:20.996Z,52.70
2019-03-12T14:45:51.998Z,53.40
2019-03-12T14:48:51.228Z,54.70
2019-03-12T14:51:34.606Z,53.20
2019-03-12T14:54:11.281Z,52.50
2019-03-12T14:56:40.311Z,53.70
2019-03-12T14:59:09.399Z,54.00
2019-03-12T15:01:38.461Z,53.20
2019-03-12T15:04:07.343Z,53.50
2019-03-12T15:06:36.227Z,55.30
2019-03-12T15:09:08.207Z,57.00
2019-03-12T15:11:37.355Z,58.60
2019-03-12T15:14:06.358Z,59.40
2019-03-12T15:16:35.303Z,61.10
2019-03-12T15:19:04.572Z,62.40
2019-03-12T15:21:33.582Z,62.40
2019-03-12T15:24:02.474Z,62.50
2019-03-12T15:26:34.472Z,63.20
2019-03-12T15:29:03.430Z,62.20
2019-03-12T15:31:32.407Z,61.40
2019-03-12T15:34:01.580Z,62.70
2019-03-12T15:36:30.531Z,64.50
2019-03-12T15:39:00.142Z,62.00
2019-03-12T15:41:29.602Z,61.90
2019-03-12T15:43:58.560Z,61.60
2019-03-12T15:46:29.351Z,61.60
2019-03-12T15:49:00.223Z,60.90
2019-03-12T15:51:29.147Z,59.70
2019-03-12T15:53:58.127Z,56.90
2019-03-12T15:56:27.013Z,55.30
2019-03-12T15:58:56.014Z,55.60
2019-03-12T16:01:24.949Z,53.70
2019-03-12T16:03:53.883Z,53.10
2019-03-12T16:08:57.896Z,54.10
2019-03-12T16:11:31.352Z,55.00
2019-03-12T16:14:00.556Z,55.60
2019-03-12T16:16:29.466Z,55.30
2019-03-12T16:18:58.393Z,55.00
2019-03-12T16:21:27.347Z,54.80
2019-03-12T16:23:56.308Z,55.90
2019-03-12T16:26:25.510Z,57.60
2019-03-12T16:28:54.491Z,56.90
2019-03-12T16:31:26.013Z,57.50
2019-03-12T16:34:06.592Z,56.70
2019-03-12T16:36:35.603Z,56.70
2019-03-12T16:39:06.016Z,56.70
2019-03-12T17:18:01.383Z,67.20
2019-03-12T17:37:06.875Z,74.60
2019-03-12T17:39:36.262Z,75.30
2019-03-12T17:42:05.742Z,75.80
2019-03-12T17:44:35.514Z,76.80
2019-03-12T17:47:04.831Z,76.70
2019-03-12T17:49:33.719Z,77.40
2019-03-12T17:52:05.778Z,76.80
2019-03-12T17:54:34.728Z,77.20
2019-03-12T17:57:03.835Z,77.50
2019-03-12T17:59:32.775Z,77.60
2019-03-12T18:02:01.751Z,77.90
2019-03-12T18:05:19.067Z,78.20
2019-03-12T18:11:09.691Z,79.40
2019-03-12T18:13:41.620Z,79.50
2019-03-12T18:16:11.956Z,79.30
2019-03-12T18:18:43.232Z,79.90
2019-03-12T18:21:17.699Z,79.40
2019-03-12T18:23:47.961Z,79.70
2019-03-12T18:26:19.543Z,79.80
2019-03-12T18:28:49.261Z,80.20
2019-03-12T18:31:19.616Z,80.40
2019-03-12T18:38:05.398Z,81.30
2019-03-12T18:40:54.161Z,82.00
2019-03-12T18:43:24.226Z,82.40
2019-03-12T18:45:54.147Z,82.50
2019-03-12T18:48:23.517Z,82.80
2019-03-12T18:50:53.525Z,82.40
2019-03-12T18:53:23.171Z,82.10
2019-03-12T18:56:00.993Z,82.10
2019-03-12T18:58:42.619Z,82.00
2019-03-12T19:01:12.030Z,81.60
2019-03-12T19:03:41.034Z,81.30
2019-03-12T19:06:10.338Z,81.30
2019-03-12T19:08:39.485Z,81.70
2019-03-12T19:11:08.768Z,82.20
2019-03-12T19:13:37.782Z,82.70
2019-03-12T19:16:06.658Z,82.70
2019-03-12T19:18:41.573Z,82.80
2019-03-12T19:21:10.700Z,83.00
2019-03-12T19:23:39.734Z,83.60
2019-03-12T19:26:08.704Z,83.60
2019-03-12T19:28:37.599Z,84.00
2019-03-12T19:31:08.151Z,84.20
2019-03-12T19:33:37.108Z,84.30
2019-03-12T19:36:06.262Z,84.60
2019-03-12T19:38:35.255Z,85.00
2019-03-12T19:41:05.109Z,85.00
2019-03-12T19:43:34.182Z,84.40
2019-03-12T19:46:03.156Z,85.00
2019-03-12T19:48:32.111Z,84.90
2019-03-12T19:51:01.976Z,84.40
2019-03-12T19:53:30.920Z,84.30
2019-03-12T19:56:05.628Z,83.80
2019-03-12T19:58:34.585Z,83.80
2019-03-12T20:01:05.058Z,83.70
2019-03-12T20:03:33.951Z,84.00
2019-03-12T20:06:02.856Z,83.70
2019-03-12T20:08:31.821Z,83.60
2019-03-12T20:11:25.024Z,83.60
2019-03-12T20:14:18.238Z,84.20
2019-03-12T20:17:09.380Z,84.00
2019-03-12T20:20:03.939Z,83.90
2019-03-12T20:22:44.515Z,84.40
2019-03-12T20:25:53.869Z,85.20
2019-03-12T20:28:31.741Z,86.10
2019-03-12T20:31:15.414Z,86.70
2019-03-12T20:34:13.123Z,86.80
2019-03-12T20:37:18.034Z,87.50
2019-03-12T20:39:58.706Z,88.60
2019-03-12T20:42:57.889Z,88.90
2019-03-12T20:45:46.105Z,89.50
2019-03-12T20:48:37.419Z,90.10
2019-03-12T20:51:27.504Z,90.50
2019-03-12T20:54:02.186Z,90.60
2019-03-12T20:57:07.238Z,90.90
2019-03-12T21:00:03.318Z,91.10
2019-03-12T21:02:55.382Z,90.90
2019-03-12T21:05:45.252Z,91.00
2019-03-12T21:08:50.205Z,90.90
2019-03-12T21:11:56.625Z,90.90
2019-03-12T21:14:47.688Z,90.70
2019-03-12T21:17:42.268Z,90.70
2019-03-12T21:20:29.060Z,90.60
2019-03-12T21:23:03.858Z,90.60
2019-03-12T21:26:01.252Z,90.50
2019-03-12T21:28:45.014Z,90.50
2019-03-12T21:31:15.187Z,90.50
2019-03-12T21:33:45.940Z,90.40
2019-03-12T21:36:19.260Z,90.40
2019-03-12T21:38:48.252Z,90.30
2019-03-12T21:41:24.187Z,90.40
2019-03-12T21:43:56.034Z,90.50
2019-03-12T21:46:32.052Z,90.60
2019-03-12T21:49:00.928Z,90.60
2019-03-12T21:51:36.550Z,90.60
2019-03-12T21:54:05.543Z,90.80
2019-03-12T21:56:34.512Z,91.00
2019-03-12T21:59:03.400Z,91.00
2019-03-12T22:01:32.333Z,91.00
2019-03-12T22:04:01.247Z,90.80
2019-03-12T22:06:30.210Z,90.90
2019-03-12T22:08:59.152Z,90.80
2019-03-12T22:11:28.111Z,90.90
2019-03-12T22:13:57.019Z,90.90
2019-03-12T22:16:25.999Z,91.00
2019-03-12T22:18:54.952Z,91.10
2019-03-12T22:21:32.156Z,91.10
2019-03-12T22:24:19.484Z,90.90
2019-03-12T22:26:50.140Z,90.90
2019-03-12T22:29:19.137Z,90.50
2019-03-12T22:32:04.840Z,91.00
2019-03-12T22:34:32.574Z,90.90
2019-03-12T22:37:14.722Z,91.20
2019-03-12T22:39:43.685Z,91.30
2019-03-12T22:42:13.596Z,91.50
2019-03-12T22:44:43.906Z,91.50
2019-03-12T22:47:14.387Z,91.20
2019-03-12T22:49:43.367Z,91.40
2019-03-12T22:52:12.306Z,91.30
2019-03-12T22:54:41.185Z,91.50
2019-03-12T22:57:10.119Z,91.30
2019-03-12T22:59:39.088Z,91.30
2019-03-12T23:02:08.049Z,91.40
2019-03-12T23:04:36.933Z,91.50
2019-03-12T23:07:05.887Z,91.50
2019-03-12T23:09:34.771Z,91.50
2019-03-12T23:12:03.879Z,91.40
2019-03-12T23:14:32.784Z,91.30
2019-03-12T23:17:01.723Z,91.30
2019-03-12T23:19:30.611Z,91.40
2019-03-12T23:21:59.600Z,91.20
2019-03-12T23:24:28.562Z,91.20
2019-03-12T23:26:57.456Z,91.00
2019-03-12T23:29:26.371Z,91.30
2019-03-12T23:31:55.468Z,91.60
2019-03-12T23:34:24.442Z,91.70
2019-03-12T23:36:53.449Z,91.90
2019-03-12T23:39:22.328Z,92.00
2019-03-12T23:41:51.386Z,92.00
2019-03-12T23:44:20.279Z,92.30
2019-03-12T23:46:49.236Z,92.50
2019-03-12T23:49:18.428Z,92.50
2019-03-12T23:51:47.378Z,92.80
2019-03-12T23:54:16.331Z,92.70
2019-03-12T23:56:45.315Z,93.20
2019-03-12T23:59:14.285Z,93.00
